sensor_id;sensor_type;location;lat;lon;timestamp;pressure;altitude;pressure_sealevel;temperature;humidity
70468;BME280;57934;51.532;7.684;2023-07-09T00:02:01;100528.50;;;23.28;nan
70468;BME280;57934;51.532;7.684;2023-07-09T00:04:28;100529.84;;;23.21;nan
70468;BME280;57934;51.532;7.684;2023-07-09T00:06:55;100531.47;;;23.22;nan
70468;BME280;57934;51.532;7.684;2023-07-09T00:09:24;100526.63;;;23.24;nan
70468;BME280;57934;51.532;7.684;2023-07-09T00:11:50;100522.84;;;23.20;nan
70468;BME280;57934;51.532;7.684;2023-07-09T00:14:16;100521.25;;;23.14;nan
70468;BME280;57934;51.532;7.684;2023-07-09T00:16:44;100524.72;;;23.09;nan
70468;BME280;57934;51.532;7.684;2023-07-09T00:19:16;100523.94;;;22.98;nan
70468;BME280;57934;51.532;7.684;2023-07-09T00:21:43;100526.06;;;22.86;nan
70468;BME280;57934;51.532;7.684;2023-07-09T00:24:13;100527.16;;;22.85;nan
70468;BME280;57934;51.532;7.684;2023-07-09T00:26:41;100526.88;;;22.81;nan
70468;BME280;57934;51.532;7.684;2023-07-09T00:29:11;100519.88;;;22.70;nan
70468;BME280;57934;51.532;7.684;2023-07-09T00:31:38;100532.78;;;22.68;nan
70468;BME280;57934;51.532;7.684;2023-07-09T00:34:09;100523.63;;;22.69;nan
70468;BME280;57934;51.532;7.684;2023-07-09T00:36:37;100531.44;;;22.66;nan
70468;BME280;57934;51.532;7.684;2023-07-09T00:39:14;100525.50;;;22.63;nan
70468;BME280;57934;51.532;7.684;2023-07-09T00:41:41;100518.53;;;22.57;nan
70468;BME280;57934;51.532;7.684;2023-07-09T00:49:12;100521.19;;;22.42;nan
70468;BME280;57934;51.532;7.684;2023-07-09T00:51:46;100519.53;;;22.31;nan
70468;BME280;57934;51.532;7.684;2023-07-09T00:54:20;100523.56;;;22.28;nan
70468;BME280;57934;51.532;7.684;2023-07-09T00:56:50;100525.69;;;22.21;nan
70468;BME280;57934;51.532;7.684;2023-07-09T00:59:22;100524.91;;;22.21;nan
70468;BME280;57934;51.532;7.684;2023-07-09T01:01:50;100520.25;;;22.06;nan
70468;BME280;57934;51.532;7.684;2023-07-09T01:04:19;100514.59;;;22.02;nan
70468;BME280;57934;51.532;7.684;2023-07-09T01:06:50;100521.53;;;21.93;nan
70468;BME280;57934;51.532;7.684;2023-07-09T01:09:17;100518.09;;;22.03;nan
70468;BME280;57934;51.532;7.684;2023-07-09T01:11:43;100514.56;;;21.97;nan
70468;BME280;57934;51.532;7.684;2023-07-09T01:14:12;100522.13;;;22.05;nan
70468;BME280;57934;51.532;7.684;2023-07-09T01:16:50;100522.75;;;22.23;nan
70468;BME280;57934;51.532;7.684;2023-07-09T01:19:24;100525.34;;;22.02;nan
70468;BME280;57934;51.532;7.684;2023-07-09T01:22:00;100522.38;;;21.99;nan
70468;BME280;57934;51.532;7.684;2023-07-09T01:24:53;100522.63;;;21.92;nan
70468;BME280;57934;51.532;7.684;2023-07-09T01:27:23;100528.84;;;21.98;nan
70468;BME280;57934;51.532;7.684;2023-07-09T01:29:54;100535.28;;;22.02;nan
70468;BME280;57934;51.532;7.684;2023-07-09T01:32:20;100530.13;;;21.90;nan
70468;BME280;57934;51.532;7.684;2023-07-09T01:34:49;100525.81;;;21.89;nan
70468;BME280;57934;51.532;7.684;2023-07-09T01:37:22;100524.75;;;21.80;nan
70468;BME280;57934;51.532;7.684;2023-07-09T01:39:50;100523.09;;;21.79;nan
70468;BME280;57934;51.532;7.684;2023-07-09T01:42:17;100528.50;;;21.84;nan
70468;BME280;57934;51.532;7.684;2023-07-09T01:44:44;100518.81;;;21.83;nan
70468;BME280;57934;51.532;7.684;2023-07-09T01:47:13;100519.25;;;21.59;nan
70468;BME280;57934;51.532;7.684;2023-07-09T01:49:39;100524.88;;;21.58;nan
70468;BME280;57934;51.532;7.684;2023-07-09T01:52:06;100528.91;;;21.60;nan
70468;BME280;57934;51.532;7.684;2023-07-09T01:54:34;100525.16;;;21.61;nan
70468;BME280;57934;51.532;7.684;2023-07-09T01:57:33;100530.28;;;21.63;nan
70468;BME280;57934;51.532;7.684;2023-07-09T02:00:05;100536.47;;;21.68;nan
70468;BME280;57934;51.532;7.684;2023-07-09T02:02:45;100536.41;;;21.58;nan
70468;BME280;57934;51.532;7.684;2023-07-09T02:05:14;100528.34;;;21.48;nan
70468;BME280;57934;51.532;7.684;2023-07-09T02:07:40;100530.75;;;21.55;nan
70468;BME280;57934;51.532;7.684;2023-07-09T02:10:07;100527.78;;;21.51;nan
70468;BME280;57934;51.532;7.684;2023-07-09T02:12:33;100527.25;;;21.49;nan
70468;BME280;57934;51.532;7.684;2023-07-09T02:14:59;100530.19;;;21.48;nan
70468;BME280;57934;51.532;7.684;2023-07-09T02:17:25;100523.34;;;21.30;nan
70468;BME280;57934;51.532;7.684;2023-07-09T02:19:51;100530.28;;;21.26;nan
70468;BME280;57934;51.532;7.684;2023-07-09T02:22:17;100517.91;;;21.19;nan
70468;BME280;57934;51.532;7.684;2023-07-09T02:24:45;100522.69;;;21.12;nan
70468;BME280;57934;51.532;7.684;2023-07-09T02:27:16;100522.38;;;21.09;nan
70468;BME280;57934;51.532;7.684;2023-07-09T02:29:42;100517.38;;;21.23;nan
70468;BME280;57934;51.532;7.684;2023-07-09T02:32:09;100519.66;;;21.36;nan
70468;BME280;57934;51.532;7.684;2023-07-09T02:34:34;100518.84;;;21.35;nan
70468;BME280;57934;51.532;7.684;2023-07-09T02:37:01;100520.13;;;21.33;nan
70468;BME280;57934;51.532;7.684;2023-07-09T02:39:27;100528.78;;;21.35;nan
70468;BME280;57934;51.532;7.684;2023-07-09T02:41:53;100533.56;;;21.33;nan
70468;BME280;57934;51.532;7.684;2023-07-09T02:44:19;100530.34;;;21.31;nan
70468;BME280;57934;51.532;7.684;2023-07-09T02:46:45;100532.66;;;21.17;nan
70468;BME280;57934;51.532;7.684;2023-07-09T02:49:13;100532.00;;;21.05;nan
70468;BME280;57934;51.532;7.684;2023-07-09T02:51:39;100533.63;;;21.06;nan
70468;BME280;57934;51.532;7.684;2023-07-09T02:54:06;100532.59;;;21.12;nan
70468;BME280;57934;51.532;7.684;2023-07-09T02:56:32;100532.06;;;21.10;nan
70468;BME280;57934;51.532;7.684;2023-07-09T02:58:58;100544.13;;;21.12;nan
70468;BME280;57934;51.532;7.684;2023-07-09T03:01:24;100540.63;;;21.07;nan
70468;BME280;57934;51.532;7.684;2023-07-09T03:03:54;100546.50;;;21.04;nan
70468;BME280;57934;51.532;7.684;2023-07-09T03:06:21;100544.94;;;21.13;nan
70468;BME280;57934;51.532;7.684;2023-07-09T03:08:48;100549.25;;;21.14;nan
70468;BME280;57934;51.532;7.684;2023-07-09T03:11:15;100553.84;;;21.18;nan
70468;BME280;57934;51.532;7.684;2023-07-09T03:13:42;100549.25;;;21.14;nan
70468;BME280;57934;51.532;7.684;2023-07-09T03:16:08;100554.63;;;21.14;nan
70468;BME280;57934;51.532;7.684;2023-07-09T03:18:34;100548.19;;;21.15;nan
70468;BME280;57934;51.532;7.684;2023-07-09T03:21:00;100557.53;;;21.07;nan
70468;BME280;57934;51.532;7.684;2023-07-09T03:23:26;100553.16;;;21.01;nan
70468;BME280;57934;51.532;7.684;2023-07-09T03:25:53;100563.38;;;21.04;nan
70468;BME280;57934;51.532;7.684;2023-07-09T03:28:20;100560.97;;;21.03;nan
70468;BME280;57934;51.532;7.684;2023-07-09T03:30:47;100565.06;;;21.10;nan
70468;BME280;57934;51.532;7.684;2023-07-09T03:33:15;100573.34;;;21.09;nan
70468;BME280;57934;51.532;7.684;2023-07-09T03:35:41;100566.66;;;21.11;nan
70468;BME280;57934;51.532;7.684;2023-07-09T03:38:08;100564.00;;;21.16;nan
70468;BME280;57934;51.532;7.684;2023-07-09T03:40:34;100569.06;;;21.13;nan
70468;BME280;57934;51.532;7.684;2023-07-09T03:43:00;100572.81;;;21.07;nan
70468;BME280;57934;51.532;7.684;2023-07-09T03:45:26;100570.34;;;21.05;nan
70468;BME280;57934;51.532;7.684;2023-07-09T03:47:52;100566.94;;;21.10;nan
70468;BME280;57934;51.532;7.684;2023-07-09T03:50:18;100568.75;;;21.04;nan
70468;BME280;57934;51.532;7.684;2023-07-09T03:52:44;100573.63;;;21.12;nan
70468;BME280;57934;51.532;7.684;2023-07-09T03:55:10;100571.03;;;21.23;nan
70468;BME280;57934;51.532;7.684;2023-07-09T03:57:36;100574.19;;;21.14;nan
70468;BME280;57934;51.532;7.684;2023-07-09T04:00:03;100564.28;;;21.15;nan
70468;BME280;57934;51.532;7.684;2023-07-09T04:02:41;100575.72;;;21.05;nan
70468;BME280;57934;51.532;7.684;2023-07-09T04:05:09;100573.81;;;21.01;nan
70468;BME280;57934;51.532;7.684;2023-07-09T04:07:36;100566.78;;;20.94;nan
70468;BME280;57934;51.532;7.684;2023-07-09T04:10:03;100573.31;;;21.04;nan
70468;BME280;57934;51.532;7.684;2023-07-09T04:12:29;100570.72;;;21.14;nan
70468;BME280;57934;51.532;7.684;2023-07-09T04:14:55;100575.50;;;21.12;nan
70468;BME280;57934;51.532;7.684;2023-07-09T04:17:20;100568.28;;;21.12;nan
70468;BME280;57934;51.532;7.684;2023-07-09T04:19:51;100571.25;;;21.16;nan
70468;BME280;57934;51.532;7.684;2023-07-09T04:22:17;100579.38;;;21.26;nan
70468;BME280;57934;51.532;7.684;2023-07-09T04:24:43;100571.72;;;21.35;nan
70468;BME280;57934;51.532;7.684;2023-07-09T04:27:10;100572.69;;;21.29;nan
70468;BME280;57934;51.532;7.684;2023-07-09T04:29:36;100570.53;;;21.26;nan
70468;BME280;57934;51.532;7.684;2023-07-09T04:32:12;100574.28;;;21.25;nan
70468;BME280;57934;51.532;7.684;2023-07-09T04:34:38;100575.66;;;21.27;nan
70468;BME280;57934;51.532;7.684;2023-07-09T04:37:09;100573.31;;;21.36;nan
70468;BME280;57934;51.532;7.684;2023-07-09T04:39:35;100574.16;;;21.41;nan
70468;BME280;57934;51.532;7.684;2023-07-09T04:42:02;100576.00;;;21.36;nan
70468;BME280;57934;51.532;7.684;2023-07-09T04:44:28;100574.47;;;21.50;nan
70468;BME280;57934;51.532;7.684;2023-07-09T04:46:54;100579.34;;;21.53;nan
70468;BME280;57934;51.532;7.684;2023-07-09T04:49:20;100582.03;;;21.58;nan
70468;BME280;57934;51.532;7.684;2023-07-09T04:51:46;100586.59;;;21.58;nan
70468;BME280;57934;51.532;7.684;2023-07-09T04:54:12;100589.13;;;21.75;nan
70468;BME280;57934;51.532;7.684;2023-07-09T04:56:41;100586.78;;;21.83;nan
70468;BME280;57934;51.532;7.684;2023-07-09T04:59:11;100585.63;;;21.74;nan
70468;BME280;57934;51.532;7.684;2023-07-09T05:01:37;100590.78;;;21.81;nan
70468;BME280;57934;51.532;7.684;2023-07-09T05:04:03;100591.09;;;21.89;nan
70468;BME280;57934;51.532;7.684;2023-07-09T05:06:29;100589.53;;;21.99;nan
70468;BME280;57934;51.532;7.684;2023-07-09T05:08:55;100584.81;;;22.16;nan
70468;BME280;57934;51.532;7.684;2023-07-09T05:11:21;100585.03;;;22.14;nan
70468;BME280;57934;51.532;7.684;2023-07-09T05:13:47;100585.38;;;22.23;nan
70468;BME280;57934;51.532;7.684;2023-07-09T05:16:14;100594.22;;;22.29;nan
70468;BME280;57934;51.532;7.684;2023-07-09T05:18:39;100585.16;;;22.45;nan
70468;BME280;57934;51.532;7.684;2023-07-09T05:21:06;100583.28;;;22.46;nan
70468;BME280;57934;51.532;7.684;2023-07-09T05:23:31;100590.53;;;22.45;nan
70468;BME280;57934;51.532;7.684;2023-07-09T05:25:59;100588.94;;;22.54;nan
70468;BME280;57934;51.532;7.684;2023-07-09T05:28:25;100584.63;;;22.48;nan
70468;BME280;57934;51.532;7.684;2023-07-09T05:30:51;100578.22;;;22.65;nan
70468;BME280;57934;51.532;7.684;2023-07-09T05:33:17;100583.34;;;22.71;nan
70468;BME280;57934;51.532;7.684;2023-07-09T05:35:45;100584.69;;;22.79;nan
70468;BME280;57934;51.532;7.684;2023-07-09T05:38:12;100584.16;;;22.77;nan
70468;BME280;57934;51.532;7.684;2023-07-09T05:40:38;100587.44;;;22.99;nan
70468;BME280;57934;51.532;7.684;2023-07-09T05:43:04;100583.66;;;23.16;nan
70468;BME280;57934;51.532;7.684;2023-07-09T05:45:30;100584.22;;;23.28;nan
70468;BME280;57934;51.532;7.684;2023-07-09T05:48:00;100587.41;;;23.45;nan
70468;BME280;57934;51.532;7.684;2023-07-09T05:50:27;100592.50;;;23.77;nan
70468;BME280;57934;51.532;7.684;2023-07-09T05:52:54;100589.13;;;24.16;nan
70468;BME280;57934;51.532;7.684;2023-07-09T05:55:20;100593.00;;;24.55;nan
70468;BME280;57934;51.532;7.684;2023-07-09T05:57:46;100597.03;;;24.96;nan
70468;BME280;57934;51.532;7.684;2023-07-09T06:00:12;100601.53;;;25.11;nan
70468;BME280;57934;51.532;7.684;2023-07-09T06:02:42;100606.56;;;25.23;nan
70468;BME280;57934;51.532;7.684;2023-07-09T06:05:08;100607.03;;;25.30;nan
70468;BME280;57934;51.532;7.684;2023-07-09T06:07:37;100604.16;;;25.51;nan
70468;BME280;57934;51.532;7.684;2023-07-09T06:10:08;100608.31;;;25.67;nan
70468;BME280;57934;51.532;7.684;2023-07-09T06:12:35;100602.31;;;25.99;nan
70468;BME280;57934;51.532;7.684;2023-07-09T06:15:01;100604.25;;;25.93;nan
70468;BME280;57934;51.532;7.684;2023-07-09T06:17:27;100610.13;;;26.01;nan
70468;BME280;57934;51.532;7.684;2023-07-09T06:19:52;100606.22;;;26.12;nan
70468;BME280;57934;51.532;7.684;2023-07-09T06:22:18;100610.69;;;26.22;nan
70468;BME280;57934;51.532;7.684;2023-07-09T06:24:45;100605.09;;;26.37;nan
70468;BME280;57934;51.532;7.684;2023-07-09T06:27:11;100599.38;;;26.38;nan
70468;BME280;57934;51.532;7.684;2023-07-09T06:29:37;100602.31;;;26.42;nan
70468;BME280;57934;51.532;7.684;2023-07-09T06:32:04;100605.44;;;26.30;nan
70468;BME280;57934;51.532;7.684;2023-07-09T06:34:30;100610.63;;;26.70;nan
70468;BME280;57934;51.532;7.684;2023-07-09T06:36:56;100605.28;;;26.83;nan
70468;BME280;57934;51.532;7.684;2023-07-09T06:39:23;100601.72;;;27.02;nan
70468;BME280;57934;51.532;7.684;2023-07-09T06:41:49;100596.78;;;26.90;nan
70468;BME280;57934;51.532;7.684;2023-07-09T06:44:46;100592.72;;;27.25;nan
70468;BME280;57934;51.532;7.684;2023-07-09T06:47:13;100603.25;;;27.41;nan
70468;BME280;57934;51.532;7.684;2023-07-09T06:49:38;100599.66;;;27.31;nan
70468;BME280;57934;51.532;7.684;2023-07-09T06:52:05;100604.56;;;27.29;nan
70468;BME280;57934;51.532;7.684;2023-07-09T06:54:31;100604.75;;;27.33;nan
70468;BME280;57934;51.532;7.684;2023-07-09T06:56:57;100604.09;;;26.89;nan
70468;BME280;57934;51.532;7.684;2023-07-09T06:59:23;100602.75;;;27.25;nan
70468;BME280;57934;51.532;7.684;2023-07-09T07:01:49;100602.78;;;27.39;nan
70468;BME280;57934;51.532;7.684;2023-07-09T07:04:15;100608.72;;;27.68;nan
70468;BME280;57934;51.532;7.684;2023-07-09T07:06:41;100613.72;;;27.47;nan
70468;BME280;57934;51.532;7.684;2023-07-09T07:09:07;100603.22;;;27.59;nan
70468;BME280;57934;51.532;7.684;2023-07-09T07:11:34;100606.25;;;27.99;nan
70468;BME280;57934;51.532;7.684;2023-07-09T07:14:00;100613.06;;;28.11;nan
70468;BME280;57934;51.532;7.684;2023-07-09T07:16:26;100610.88;;;27.85;nan
70468;BME280;57934;51.532;7.684;2023-07-09T07:18:52;100605.53;;;27.94;nan
70468;BME280;57934;51.532;7.684;2023-07-09T07:21:18;100609.88;;;28.22;nan
70468;BME280;57934;51.532;7.684;2023-07-09T07:23:44;100614.59;;;28.17;nan
70468;BME280;57934;51.532;7.684;2023-07-09T07:26:10;100604.63;;;28.26;nan
70468;BME280;57934;51.532;7.684;2023-07-09T07:28:36;100603.72;;;28.30;nan
70468;BME280;57934;51.532;7.684;2023-07-09T07:31:07;100608.91;;;28.54;nan
70468;BME280;57934;51.532;7.684;2023-07-09T07:33:33;100604.53;;;29.04;nan
70468;BME280;57934;51.532;7.684;2023-07-09T07:35:59;100596.88;;;29.06;nan
70468;BME280;57934;51.532;7.684;2023-07-09T07:38:25;100603.97;;;29.15;nan
70468;BME280;57934;51.532;7.684;2023-07-09T07:40:51;100606.06;;;29.18;nan
70468;BME280;57934;51.532;7.684;2023-07-09T07:43:17;100607.59;;;29.33;nan
70468;BME280;57934;51.532;7.684;2023-07-09T07:45:44;100612.50;;;29.54;nan
70468;BME280;57934;51.532;7.684;2023-07-09T07:48:10;100617.38;;;30.14;nan
70468;BME280;57934;51.532;7.684;2023-07-09T07:50:36;100609.03;;;30.10;nan
70468;BME280;57934;51.532;7.684;2023-07-09T07:53:04;100612.03;;;30.40;nan
70468;BME280;57934;51.532;7.684;2023-07-09T07:55:30;100607.03;;;30.25;nan
70468;BME280;57934;51.532;7.684;2023-07-09T07:57:56;100615.09;;;30.64;nan
70468;BME280;57934;51.532;7.684;2023-07-09T08:00:22;100618.47;;;30.79;nan
70468;BME280;57934;51.532;7.684;2023-07-09T08:02:48;100605.06;;;31.47;nan
70468;BME280;57934;51.532;7.684;2023-07-09T08:05:15;100604.66;;;31.01;nan
70468;BME280;57934;51.532;7.684;2023-07-09T08:07:41;100596.59;;;31.78;nan
70468;BME280;57934;51.532;7.684;2023-07-09T08:10:07;100597.25;;;32.97;nan
70468;BME280;57934;51.532;7.684;2023-07-09T08:12:34;100598.81;;;33.43;nan
70468;BME280;57934;51.532;7.684;2023-07-09T08:14:59;100599.53;;;34.95;nan
70468;BME280;57934;51.532;7.684;2023-07-09T08:17:25;100607.88;;;35.74;nan
70468;BME280;57934;51.532;7.684;2023-07-09T08:19:53;100606.06;;;36.32;nan
70468;BME280;57934;51.532;7.684;2023-07-09T08:22:20;100605.19;;;37.06;nan
70468;BME280;57934;51.532;7.684;2023-07-09T08:24:50;100596.47;;;37.23;nan
70468;BME280;57934;51.532;7.684;2023-07-09T08:27:18;100592.25;;;38.02;nan
70468;BME280;57934;51.532;7.684;2023-07-09T08:29:44;100583.84;;;38.52;nan
70468;BME280;57934;51.532;7.684;2023-07-09T08:32:11;100599.34;;;38.63;nan
70468;BME280;57934;51.532;7.684;2023-07-09T08:34:38;100589.72;;;39.21;nan
70468;BME280;57934;51.532;7.684;2023-07-09T08:37:06;100594.19;;;39.36;nan
70468;BME280;57934;51.532;7.684;2023-07-09T08:39:32;100592.66;;;38.98;nan
70468;BME280;57934;51.532;7.684;2023-07-09T08:42:02;100593.50;;;40.02;nan
70468;BME280;57934;51.532;7.684;2023-07-09T08:49:59;100580.28;;;40.54;nan
70468;BME280;57934;51.532;7.684;2023-07-09T08:55:27;100569.34;;;40.86;nan
70468;BME280;57934;51.532;7.684;2023-07-09T08:57:57;100573.34;;;38.64;nan
70468;BME280;57934;51.532;7.684;2023-07-09T09:00:29;100574.44;;;38.90;nan
70468;BME280;57934;51.532;7.684;2023-07-09T09:03:01;100578.78;;;38.91;nan
70468;BME280;57934;51.532;7.684;2023-07-09T09:05:29;100570.59;;;40.05;nan
70468;BME280;57934;51.532;7.684;2023-07-09T09:08:03;100570.28;;;39.58;nan
70468;BME280;57934;51.532;7.684;2023-07-09T09:10:34;100562.78;;;40.18;nan
70468;BME280;57934;51.532;7.684;2023-07-09T09:13:14;100566.16;;;41.70;nan
70468;BME280;57934;51.532;7.684;2023-07-09T09:15:43;100562.91;;;42.11;nan
70468;BME280;57934;51.532;7.684;2023-07-09T09:18:19;100573.50;;;43.11;nan
70468;BME280;57934;51.532;7.684;2023-07-09T09:20:51;100567.00;;;43.28;nan
70468;BME280;57934;51.532;7.684;2023-07-09T09:23:18;100574.63;;;43.62;nan
70468;BME280;57934;51.532;7.684;2023-07-09T09:25:49;100571.94;;;42.99;nan
70468;BME280;57934;51.532;7.684;2023-07-09T09:28:17;100565.41;;;41.59;nan
70468;BME280;57934;51.532;7.684;2023-07-09T09:30:43;100564.50;;;42.05;nan
70468;BME280;57934;51.532;7.684;2023-07-09T09:33:10;100565.41;;;41.55;nan
70468;BME280;57934;51.532;7.684;2023-07-09T09:35:40;100553.59;;;39.99;nan
70468;BME280;57934;51.532;7.684;2023-07-09T09:38:35;100562.22;;;41.78;nan
70468;BME280;57934;51.532;7.684;2023-07-09T09:41:01;100555.72;;;42.24;nan
70468;BME280;57934;51.532;7.684;2023-07-09T09:43:32;100557.34;;;43.40;nan
70468;BME280;57934;51.532;7.684;2023-07-09T09:45:58;100563.66;;;43.44;nan
70468;BME280;57934;51.532;7.684;2023-07-09T09:48:29;100560.44;;;43.87;nan
70468;BME280;57934;51.532;7.684;2023-07-09T09:50:56;100551.94;;;43.26;nan
70468;BME280;57934;51.532;7.684;2023-07-09T09:53:28;100553.88;;;43.70;nan
70468;BME280;57934;51.532;7.684;2023-07-09T09:55:56;100556.19;;;43.38;nan
70468;BME280;57934;51.532;7.684;2023-07-09T09:58:28;100553.25;;;44.54;nan
70468;BME280;57934;51.532;7.684;2023-07-09T10:00:56;100542.63;;;45.00;nan
70468;BME280;57934;51.532;7.684;2023-07-09T10:03:33;100546.31;;;44.70;nan
70468;BME280;57934;51.532;7.684;2023-07-09T10:06:05;100548.81;;;44.88;nan
70468;BME280;57934;51.532;7.684;2023-07-09T10:09:13;100549.53;;;44.38;nan
70468;BME280;57934;51.532;7.684;2023-07-09T10:14:49;100545.16;;;44.64;nan
70468;BME280;57934;51.532;7.684;2023-07-09T10:17:33;100549.63;;;45.12;nan
70468;BME280;57934;51.532;7.684;2023-07-09T10:25:44;100553.09;;;45.63;nan
70468;BME280;57934;51.532;7.684;2023-07-09T10:33:44;100543.84;;;42.97;nan
70468;BME280;57934;51.532;7.684;2023-07-09T10:36:25;100544.19;;;44.20;nan
70468;BME280;57934;51.532;7.684;2023-07-09T10:39:02;100535.66;;;44.03;nan
70468;BME280;57934;51.532;7.684;2023-07-09T10:41:31;100531.56;;;42.21;nan
70468;BME280;57934;51.532;7.684;2023-07-09T10:44:03;100530.47;;;43.30;nan
70468;BME280;57934;51.532;7.684;2023-07-09T10:46:34;100525.78;;;44.57;nan
70468;BME280;57934;51.532;7.684;2023-07-09T10:49:03;100520.84;;;44.95;nan
70468;BME280;57934;51.532;7.684;2023-07-09T10:51:51;100515.50;;;45.51;nan
70468;BME280;57934;51.532;7.684;2023-07-09T10:54:24;100519.97;;;42.51;nan
70468;BME280;57934;51.532;7.684;2023-07-09T10:57:00;100519.13;;;43.55;nan
70468;BME280;57934;51.532;7.684;2023-07-09T10:59:31;100511.06;;;42.78;nan
70468;BME280;57934;51.532;7.684;2023-07-09T11:02:18;100510.34;;;43.19;nan
70468;BME280;57934;51.532;7.684;2023-07-09T11:04:54;100516.72;;;41.68;nan
70468;BME280;57934;51.532;7.684;2023-07-09T11:07:27;100514.94;;;42.87;nan
70468;BME280;57934;51.532;7.684;2023-07-09T11:09:54;100511.84;;;43.68;nan
70468;BME280;57934;51.532;7.684;2023-07-09T11:12:36;100518.56;;;43.29;nan
70468;BME280;57934;51.532;7.684;2023-07-09T11:15:14;100514.38;;;41.38;nan
70468;BME280;57934;51.532;7.684;2023-07-09T11:17:44;100514.47;;;42.96;nan
70468;BME280;57934;51.532;7.684;2023-07-09T11:20:24;100508.13;;;42.36;nan
70468;BME280;57934;51.532;7.684;2023-07-09T11:22:53;100504.38;;;43.20;nan
70468;BME280;57934;51.532;7.684;2023-07-09T11:25:44;100493.59;;;42.14;nan
70468;BME280;57934;51.532;7.684;2023-07-09T11:28:10;100502.28;;;43.31;nan
70468;BME280;57934;51.532;7.684;2023-07-09T11:30:51;100496.25;;;44.09;nan
70468;BME280;57934;51.532;7.684;2023-07-09T11:33:26;100505.28;;;43.03;nan
70468;BME280;57934;51.532;7.684;2023-07-09T11:36:07;100492.72;;;43.70;nan
70468;BME280;57934;51.532;7.684;2023-07-09T11:38:43;100482.28;;;44.43;nan
70468;BME280;57934;51.532;7.684;2023-07-09T11:41:41;100480.50;;;44.29;nan
70468;BME280;57934;51.532;7.684;2023-07-09T11:46:38;100475.50;;;45.38;nan
70468;BME280;57934;51.532;7.684;2023-07-09T11:49:08;100474.94;;;45.03;nan
70468;BME280;57934;51.532;7.684;2023-07-09T11:51:45;100476.28;;;44.17;nan
70468;BME280;57934;51.532;7.684;2023-07-09T11:54:12;100480.38;;;42.96;nan
70468;BME280;57934;51.532;7.684;2023-07-09T11:56:41;100466.34;;;43.13;nan
70468;BME280;57934;51.532;7.684;2023-07-09T11:59:11;100461.25;;;43.80;nan
70468;BME280;57934;51.532;7.684;2023-07-09T12:01:44;100458.03;;;43.51;nan
70468;BME280;57934;51.532;7.684;2023-07-09T12:04:16;100457.47;;;40.66;nan
70468;BME280;57934;51.532;7.684;2023-07-09T12:06:43;100448.69;;;40.21;nan
70468;BME280;57934;51.532;7.684;2023-07-09T12:09:16;100439.22;;;39.38;nan
70468;BME280;57934;51.532;7.684;2023-07-09T12:11:48;100442.34;;;38.37;nan
70468;BME280;57934;51.532;7.684;2023-07-09T12:14:19;100433.75;;;38.12;nan
70468;BME280;57934;51.532;7.684;2023-07-09T12:16:48;100426.13;;;37.41;nan
70468;BME280;57934;51.532;7.684;2023-07-09T12:19:17;100427.03;;;37.45;nan
70468;BME280;57934;51.532;7.684;2023-07-09T12:21:46;100422.34;;;36.73;nan
70468;BME280;57934;51.532;7.684;2023-07-09T12:24:24;100426.69;;;35.93;nan
70468;BME280;57934;51.532;7.684;2023-07-09T12:26:55;100423.09;;;35.89;nan
70468;BME280;57934;51.532;7.684;2023-07-09T12:29:30;100418.91;;;35.95;nan
70468;BME280;57934;51.532;7.684;2023-07-09T12:31:57;100415.53;;;36.44;nan
70468;BME280;57934;51.532;7.684;2023-07-09T12:34:24;100411.25;;;35.85;nan
70468;BME280;57934;51.532;7.684;2023-07-09T12:36:52;100414.84;;;35.89;nan
70468;BME280;57934;51.532;7.684;2023-07-09T12:39:24;100401.34;;;36.19;nan
70468;BME280;57934;51.532;7.684;2023-07-09T12:41:54;100408.81;;;36.42;nan
70468;BME280;57934;51.532;7.684;2023-07-09T12:44:22;100406.28;;;35.36;nan
70468;BME280;57934;51.532;7.684;2023-07-09T12:46:50;100401.50;;;35.17;nan
70468;BME280;57934;51.532;7.684;2023-07-09T12:51:50;100394.19;;;35.56;nan
70468;BME280;57934;51.532;7.684;2023-07-09T12:54:18;100391.44;;;35.76;nan
70468;BME280;57934;51.532;7.684;2023-07-09T12:56:45;100397.59;;;35.89;nan
70468;BME280;57934;51.532;7.684;2023-07-09T12:59:22;100397.97;;;36.06;nan
70468;BME280;57934;51.532;7.684;2023-07-09T13:04:40;100390.31;;;36.39;nan
70468;BME280;57934;51.532;7.684;2023-07-09T13:09:52;100392.69;;;36.17;nan
70468;BME280;57934;51.532;7.684;2023-07-09T13:12:20;100388.13;;;35.86;nan
70468;BME280;57934;51.532;7.684;2023-07-09T13:14:53;100379.09;;;36.05;nan
70468;BME280;57934;51.532;7.684;2023-07-09T13:17:20;100385.00;;;36.26;nan
70468;BME280;57934;51.532;7.684;2023-07-09T13:19:46;100379.34;;;36.62;nan
70468;BME280;57934;51.532;7.684;2023-07-09T13:22:17;100380.59;;;36.45;nan
70468;BME280;57934;51.532;7.684;2023-07-09T13:24:45;100380.88;;;36.59;nan
70468;BME280;57934;51.532;7.684;2023-07-09T13:27:15;100376.66;;;36.00;nan
70468;BME280;57934;51.532;7.684;2023-07-09T13:29:42;100385.16;;;35.95;nan
70468;BME280;57934;51.532;7.684;2023-07-09T13:32:13;100372.22;;;36.15;nan
70468;BME280;57934;51.532;7.684;2023-07-09T13:34:39;100378.56;;;36.19;nan
70468;BME280;57934;51.532;7.684;2023-07-09T13:37:12;100369.69;;;35.87;nan
70468;BME280;57934;51.532;7.684;2023-07-09T13:39:39;100375.63;;;35.69;nan
70468;BME280;57934;51.532;7.684;2023-07-09T13:42:11;100362.75;;;35.73;nan
70468;BME280;57934;51.532;7.684;2023-07-09T13:44:39;100374.84;;;35.88;nan
70468;BME280;57934;51.532;7.684;2023-07-09T13:47:07;100371.00;;;35.93;nan
70468;BME280;57934;51.532;7.684;2023-07-09T13:49:34;100369.06;;;36.36;nan
70468;BME280;57934;51.532;7.684;2023-07-09T13:52:00;100362.41;;;36.14;nan
70468;BME280;57934;51.532;7.684;2023-07-09T13:54:30;100357.88;;;36.02;nan
70468;BME280;57934;51.532;7.684;2023-07-09T13:57:11;100358.13;;;36.16;nan
70468;BME280;57934;51.532;7.684;2023-07-09T13:59:38;100367.34;;;36.27;nan